Brilliance Of The Seas — C6SJ5 — position and weather

sailwx.info

Track history (hours):
 
Tides and Currents Weather Stations Pressure Air Temp Water Temp Dewpoint Dewpoint Depression Visibility Wind Speed Wind Dir Waves Ship Positions

Brilliance Of The Seas

Operator: Royal Caribbean Cruises Ltd

Last reported at 2015-Jan-26 22:22 UTC. Time now 2015-Jan-27 05:50 UTC.
Position N 27°45' W 082°32'.

Type: Ship. MMSI: 311361000.

Date/timePositionNaut miles runAvg speedWind from/ knotsBaromVisibWave heightAir tempDewpointWater temp
2015-Jan-26 22:22N 27°45' W 082°32'911.4
2015-Jan-26 21:33N 27°53' W 082°26'4 4.1
2015-Jan-26 20:33N 27°57' W 082°27'0 0.0
2015-Jan-26 19:33N 27°57' W 082°27'0 0.0
2015-Jan-26 18:33N 27°57' W 082°27'0 0.0
2015-Jan-26 17:30N 27°57' W 082°27'0 0.0
2015-Jan-26 16:33N 27°57' W 082°27'0 0.0
2015-Jan-26 15:33N 27°57' W 082°27'0 0.0
2015-Jan-26 14:33N 27°57' W 082°27'0 0.0
2015-Jan-26 13:30N 27°57' W 082°27'0 0.0
2015-Jan-26 12:33N 27°57' W 082°27'0 0.1
2015-Jan-26 11:33N 27°57' W 082°27'7 6.7
2015-Jan-26 10:33N 27°50' W 082°27'50314.3
2015-Jan-24 23:24N 20°33' W 086°59'4 4.2
2015-Jan-24 22:30N 20°29' W 086°59'0 0.0
2015-Jan-24 21:30N 20°29' W 086°59'0 0.0
2015-Jan-24 20:33N 20°29' W 086°59'0 0.0
2015-Jan-24 19:33N 20°29' W 086°59'0 0.0
2015-Jan-24 18:33N 20°29' W 086°59'0 0.0
2015-Jan-24 17:33N 20°29' W 086°59'0 0.0
2015-Jan-24 16:33N 20°29' W 086°59'0 0.0
2015-Jan-24 15:33N 20°29' W 086°59'0 0.0
2015-Jan-24 14:33N 20°29' W 086°59'0 0.0
2015-Jan-24 13:33N 20°29' W 086°59'0 0.5
2015-Jan-24 12:32N 20°29' W 086°59'50013.2
2015-Jan-22 22:33N 27°46' W 082°31'10 9.9
2015-Jan-22 21:33N 27°55' W 082°27'1 1.4
2015-Jan-22 20:31N 27°57' W 082°27'0 0.0
2015-Jan-22 19:31N 27°57' W 082°27'0 0.0
2015-Jan-22 18:31N 27°57' W 082°27'0 0.0
2015-Jan-22 17:31N 27°57' W 082°27'0 0.0
2015-Jan-22 16:31N 27°57' W 082°27'0 0.0
2015-Jan-22 15:31N 27°57' W 082°27'0 0.0
2015-Jan-22 14:31N 27°57' W 082°27'0 0.0
2015-Jan-22 13:31N 27°57' W 082°27'0 0.0
2015-Jan-22 12:31N 27°57' W 082°27'0 0.1
2015-Jan-22 11:33N 27°57' W 082°27'8 7.8
2015-Jan-22 10:33N 27°49' W 082°27'1312.8
2015-Jan-22 09:34N 27°39' W 082°36'48914.8
2015-Jan-21 00:33N 20°32' W 086°59'3 2.7
2015-Jan-20 23:32N 20°30' W 086°59'1 0.9
2015-Jan-20 22:29N 20°29' W 086°59'0 0.0
2015-Jan-20 21:29N 20°29' W 086°59'0 0.0
2015-Jan-20 20:17N 20°29' W 086°59'0 0.0
2015-Jan-20 19:29N 20°29' W 086°59'0 0.0
2015-Jan-20 18:32N 20°29' W 086°59'0 0.0
2015-Jan-20 17:32N 20°29' W 086°59'0 0.0
2015-Jan-20 16:32N 20°29' W 086°59'0 0.0
2015-Jan-20 15:32N 20°29' W 086°59'0 0.0
2015-Jan-20 14:32N 20°29' W 086°59'0 0.0
2015-Jan-20 13:32N 20°29' W 086°59'1 0.9
2015-Jan-20 12:32N 20°30' W 086°59'  
2015-Jan-17 22:30N 27°45' W 082°31'1010.6
2015-Jan-17 21:33N 27°54' W 082°26'3 2.6
2015-Jan-17 20:31N 27°57' W 082°27'0 0.0
2015-Jan-17 19:31N 27°57' W 082°27'0 0.0
2015-Jan-17 18:31N 27°57' W 082°27'0 0.0
2015-Jan-17 17:31N 27°57' W 082°27'0 0.0
2015-Jan-17 16:31N 27°57' W 082°27'0 0.0
2015-Jan-17 15:31N 27°57' W 082°27'0 0.0
2015-Jan-17 14:31N 27°57' W 082°27'0 0.0
2015-Jan-17 13:31N 27°57' W 082°27'0 0.0
2015-Jan-17 12:31N 27°57' W 082°27'0 0.0
2015-Jan-17 11:33N 27°57' W 082°27'4 3.6
2015-Jan-17 10:33N 27°53' W 082°26'1110.7
2015-Jan-17 09:33N 27°44' W 082°32'  
Track history (hours):
 
Tides and Currents Weather Stations Pressure Air Temp Water Temp Dewpoint Dewpoint Depression Visibility Wind Speed Wind Dir Waves Ship Positions

Brilliance Of The Seas

Operator: Royal Caribbean Cruises Ltd

Last reported at 2015-Jan-26 22:22 UTC. Time now 2015-Jan-27 05:50 UTC.
Position N 27°45' W 082°32'.

Type: Ship. MMSI: 311361000.

Date/timePositionNaut miles runAvg speedWind from/ knotsBaromVisibWave heightAir tempDewpointWater temp
2015-Jan-26 22:22N 27°45' W 082°32'911.4
2015-Jan-26 21:33N 27°53' W 082°26'4 4.1
2015-Jan-26 20:33N 27°57' W 082°27'0 0.0
2015-Jan-26 19:33N 27°57' W 082°27'0 0.0
2015-Jan-26 18:33N 27°57' W 082°27'0 0.0
2015-Jan-26 17:30N 27°57' W 082°27'0 0.0
2015-Jan-26 16:33N 27°57' W 082°27'0 0.0
2015-Jan-26 15:33N 27°57' W 082°27'0 0.0
2015-Jan-26 14:33N 27°57' W 082°27'0 0.0
2015-Jan-26 13:30N 27°57' W 082°27'0 0.0
2015-Jan-26 12:33N 27°57' W 082°27'0 0.1
2015-Jan-26 11:33N 27°57' W 082°27'7 6.7
2015-Jan-26 10:33N 27°50' W 082°27'50314.3
2015-Jan-24 23:24N 20°33' W 086°59'4 4.2
2015-Jan-24 22:30N 20°29' W 086°59'0 0.0
2015-Jan-24 21:30N 20°29' W 086°59'0 0.0
2015-Jan-24 20:33N 20°29' W 086°59'0 0.0
2015-Jan-24 19:33N 20°29' W 086°59'0 0.0
2015-Jan-24 18:33N 20°29' W 086°59'0 0.0
2015-Jan-24 17:33N 20°29' W 086°59'0 0.0
2015-Jan-24 16:33N 20°29' W 086°59'0 0.0
2015-Jan-24 15:33N 20°29' W 086°59'0 0.0
2015-Jan-24 14:33N 20°29' W 086°59'0 0.0
2015-Jan-24 13:33N 20°29' W 086°59'0 0.5
2015-Jan-24 12:32N 20°29' W 086°59'50013.2
2015-Jan-22 22:33N 27°46' W 082°31'10 9.9
2015-Jan-22 21:33N 27°55' W 082°27'1 1.4
2015-Jan-22 20:31N 27°57' W 082°27'0 0.0
2015-Jan-22 19:31N 27°57' W 082°27'0 0.0
2015-Jan-22 18:31N 27°57' W 082°27'0 0.0
2015-Jan-22 17:31N 27°57' W 082°27'0 0.0
2015-Jan-22 16:31N 27°57' W 082°27'0 0.0
2015-Jan-22 15:31N 27°57' W 082°27'0 0.0
2015-Jan-22 14:31N 27°57' W 082°27'0 0.0
2015-Jan-22 13:31N 27°57' W 082°27'0 0.0
2015-Jan-22 12:31N 27°57' W 082°27'0 0.1
2015-Jan-22 11:33N 27°57' W 082°27'8 7.8
2015-Jan-22 10:33N 27°49' W 082°27'1312.8
2015-Jan-22 09:34N 27°39' W 082°36'48914.8
2015-Jan-21 00:33N 20°32' W 086°59'3 2.7
2015-Jan-20 23:32N 20°30' W 086°59'1 0.9
2015-Jan-20 22:29N 20°29' W 086°59'0 0.0
2015-Jan-20 21:29N 20°29' W 086°59'0 0.0
2015-Jan-20 20:17N 20°29' W 086°59'0 0.0
2015-Jan-20 19:29N 20°29' W 086°59'0 0.0
2015-Jan-20 18:32N 20°29' W 086°59'0 0.0
2015-Jan-20 17:32N 20°29' W 086°59'0 0.0
2015-Jan-20 16:32N 20°29' W 086°59'0 0.0
2015-Jan-20 15:32N 20°29' W 086°59'0 0.0
2015-Jan-20 14:32N 20°29' W 086°59'0 0.0
2015-Jan-20 13:32N 20°29' W 086°59'1 0.9
2015-Jan-20 12:32N 20°30' W 086°59'  
2015-Jan-17 22:30N 27°45' W 082°31'1010.6
2015-Jan-17 21:33N 27°54' W 082°26'3 2.6
2015-Jan-17 20:31N 27°57' W 082°27'0 0.0
2015-Jan-17 19:31N 27°57' W 082°27'0 0.0
2015-Jan-17 18:31N 27°57' W 082°27'0 0.0
2015-Jan-17 17:31N 27°57' W 082°27'0 0.0
2015-Jan-17 16:31N 27°57' W 082°27'0 0.0
2015-Jan-17 15:31N 27°57' W 082°27'0 0.0
2015-Jan-17 14:31N 27°57' W 082°27'0 0.0
2015-Jan-17 13:31N 27°57' W 082°27'0 0.0
2015-Jan-17 12:31N 27°57' W 082°27'0 0.0
2015-Jan-17 11:33N 27°57' W 082°27'4 3.6
2015-Jan-17 10:33N 27°53' W 082°26'1110.7
2015-Jan-17 09:33N 27°44' W 082°32'  

Dump ship's entire track history